sensor_id;sensor_type;location;lat;lon;timestamp;temperature;humidity
10437;DHT22;5265;50.006;9.202;2022-09-09T00:00:06;13.20;99.90
10437;DHT22;5265;50.006;9.202;2022-09-09T00:02:33;13.10;99.90
10437;DHT22;5265;50.006;9.202;2022-09-09T00:05:04;13.20;99.90
10437;DHT22;5265;50.006;9.202;2022-09-09T00:07:38;13.10;99.90
10437;DHT22;5265;50.006;9.202;2022-09-09T00:10:18;13.10;99.90
10437;DHT22;5265;50.006;9.202;2022-09-09T00:12:49;13.10;99.90
10437;DHT22;5265;50.006;9.202;2022-09-09T00:15:18;13.10;99.90
10437;DHT22;5265;50.006;9.202;2022-09-09T00:17:47;13.20;99.90
10437;DHT22;5265;50.006;9.202;2022-09-09T00:20:19;13.20;99.90
10437;DHT22;5265;50.006;9.202;2022-09-09T00:22:50;13.20;99.90
10437;DHT22;5265;50.006;9.202;2022-09-09T00:25:23;13.20;99.90
10437;DHT22;5265;50.006;9.202;2022-09-09T00:27:53;13.20;99.90
10437;DHT22;5265;50.006;9.202;2022-09-09T00:30:22;13.20;99.90
10437;DHT22;5265;50.006;9.202;2022-09-09T00:32:50;13.30;99.90
10437;DHT22;5265;50.006;9.202;2022-09-09T00:35:21;13.30;99.90
10437;DHT22;5265;50.006;9.202;2022-09-09T00:37:50;13.30;99.90
10437;DHT22;5265;50.006;9.202;2022-09-09T00:40:24;13.20;99.90
10437;DHT22;5265;50.006;9.202;2022-09-09T00:42:54;13.20;99.90
10437;DHT22;5265;50.006;9.202;2022-09-09T00:45:35;13.30;99.90
10437;DHT22;5265;50.006;9.202;2022-09-09T00:48:04;13.20;99.90
10437;DHT22;5265;50.006;9.202;2022-09-09T00:50:39;13.30;99.90
10437;DHT22;5265;50.006;9.202;2022-09-09T00:53:12;13.30;99.90
10437;DHT22;5265;50.006;9.202;2022-09-09T00:55:45;13.40;99.90
10437;DHT22;5265;50.006;9.202;2022-09-09T00:58:13;13.40;99.90
10437;DHT22;5265;50.006;9.202;2022-09-09T01:00:41;13.30;99.90
10437;DHT22;5265;50.006;9.202;2022-09-09T01:03:17;13.30;99.90
10437;DHT22;5265;50.006;9.202;2022-09-09T01:05:48;13.30;99.90
10437;DHT22;5265;50.006;9.202;2022-09-09T01:08:22;13.30;99.90
10437;DHT22;5265;50.006;9.202;2022-09-09T01:10:57;13.30;99.90
10437;DHT22;5265;50.006;9.202;2022-09-09T01:13:28;13.40;99.90
10437;DHT22;5265;50.006;9.202;2022-09-09T01:16:00;13.40;99.90
10437;DHT22;5265;50.006;9.202;2022-09-09T01:18:32;13.40;99.90
10437;DHT22;5265;50.006;9.202;2022-09-09T01:21:02;13.40;99.90
10437;DHT22;5265;50.006;9.202;2022-09-09T01:26:51;13.30;99.90
10437;DHT22;5265;50.006;9.202;2022-09-09T01:29:24;13.30;99.90
10437;DHT22;5265;50.006;9.202;2022-09-09T01:31:52;13.30;99.90
10437;DHT22;5265;50.006;9.202;2022-09-09T01:34:20;13.30;99.90
10437;DHT22;5265;50.006;9.202;2022-09-09T01:36:49;13.30;99.90
10437;DHT22;5265;50.006;9.202;2022-09-09T01:39:18;13.30;99.90
10437;DHT22;5265;50.006;9.202;2022-09-09T01:41:53;13.50;99.90
10437;DHT22;5265;50.006;9.202;2022-09-09T01:44:21;13.40;99.90
10437;DHT22;5265;50.006;9.202;2022-09-09T01:46:49;13.40;99.90
10437;DHT22;5265;50.006;9.202;2022-09-09T01:49:18;13.40;99.90
10437;DHT22;5265;50.006;9.202;2022-09-09T01:51:46;13.30;99.90
10437;DHT22;5265;50.006;9.202;2022-09-09T01:54:17;13.30;99.90
10437;DHT22;5265;50.006;9.202;2022-09-09T01:56:47;13.20;99.90
10437;DHT22;5265;50.006;9.202;2022-09-09T01:59:25;13.20;99.90
10437;DHT22;5265;50.006;9.202;2022-09-09T02:02:03;13.30;99.90
10437;DHT22;5265;50.006;9.202;2022-09-09T02:04:40;13.30;99.90
10437;DHT22;5265;50.006;9.202;2022-09-09T02:07:15;13.30;99.90
10437;DHT22;5265;50.006;9.202;2022-09-09T02:09:47;13.20;99.90
10437;DHT22;5265;50.006;9.202;2022-09-09T02:12:18;13.30;99.90
10437;DHT22;5265;50.006;9.202;2022-09-09T02:14:55;13.40;99.90
10437;DHT22;5265;50.006;9.202;2022-09-09T02:17:26;13.30;99.90
10437;DHT22;5265;50.006;9.202;2022-09-09T02:20:05;13.30;99.90
10437;DHT22;5265;50.006;9.202;2022-09-09T02:22:43;13.30;99.90
10437;DHT22;5265;50.006;9.202;2022-09-09T02:25:13;13.30;99.90
10437;DHT22;5265;50.006;9.202;2022-09-09T02:27:43;13.30;99.90
10437;DHT22;5265;50.006;9.202;2022-09-09T02:30:12;13.40;99.90
10437;DHT22;5265;50.006;9.202;2022-09-09T02:32:46;13.30;99.90
10437;DHT22;5265;50.006;9.202;2022-09-09T02:35:17;13.30;99.90
10437;DHT22;5265;50.006;9.202;2022-09-09T02:37:46;13.30;99.90
10437;DHT22;5265;50.006;9.202;2022-09-09T02:40:15;13.20;99.90
10437;DHT22;5265;50.006;9.202;2022-09-09T02:42:47;13.20;99.90
10437;DHT22;5265;50.006;9.202;2022-09-09T02:45:18;13.10;99.90
10437;DHT22;5265;50.006;9.202;2022-09-09T02:47:48;13.20;99.90
10437;DHT22;5265;50.006;9.202;2022-09-09T02:50:22;13.20;99.90
10437;DHT22;5265;50.006;9.202;2022-09-09T02:52:57;13.20;99.90
10437;DHT22;5265;50.006;9.202;2022-09-09T02:55:29;13.20;99.90
10437;DHT22;5265;50.006;9.202;2022-09-09T02:58:00;13.30;99.90
10437;DHT22;5265;50.006;9.202;2022-09-09T03:00:29;13.30;99.90
10437;DHT22;5265;50.006;9.202;2022-09-09T03:03:00;13.30;99.90
10437;DHT22;5265;50.006;9.202;2022-09-09T03:05:27;13.40;99.90
10437;DHT22;5265;50.006;9.202;2022-09-09T03:07:55;13.40;99.90
10437;DHT22;5265;50.006;9.202;2022-09-09T03:10:22;13.40;99.90
10437;DHT22;5265;50.006;9.202;2022-09-09T03:12:49;13.40;99.90
10437;DHT22;5265;50.006;9.202;2022-09-09T03:15:18;13.40;99.90
10437;DHT22;5265;50.006;9.202;2022-09-09T03:17:47;13.40;99.90
10437;DHT22;5265;50.006;9.202;2022-09-09T03:20:15;13.40;99.90
10437;DHT22;5265;50.006;9.202;2022-09-09T03:22:42;13.40;99.90
10437;DHT22;5265;50.006;9.202;2022-09-09T03:25:10;13.40;99.90
10437;DHT22;5265;50.006;9.202;2022-09-09T03:27:38;13.40;99.90
10437;DHT22;5265;50.006;9.202;2022-09-09T03:30:06;13.50;99.90
10437;DHT22;5265;50.006;9.202;2022-09-09T03:32:34;13.50;99.90
10437;DHT22;5265;50.006;9.202;2022-09-09T03:35:02;13.50;99.90
10437;DHT22;5265;50.006;9.202;2022-09-09T03:37:30;13.50;99.90
10437;DHT22;5265;50.006;9.202;2022-09-09T03:39:57;13.50;99.90
10437;DHT22;5265;50.006;9.202;2022-09-09T03:42:25;13.50;99.90
10437;DHT22;5265;50.006;9.202;2022-09-09T03:44:54;13.50;99.90
10437;DHT22;5265;50.006;9.202;2022-09-09T03:47:24;13.40;99.90
10437;DHT22;5265;50.006;9.202;2022-09-09T03:49:56;13.40;99.90
10437;DHT22;5265;50.006;9.202;2022-09-09T03:52:25;13.30;99.90
10437;DHT22;5265;50.006;9.202;2022-09-09T03:54:53;13.40;99.90
10437;DHT22;5265;50.006;9.202;2022-09-09T03:57:21;13.30;99.90
10437;DHT22;5265;50.006;9.202;2022-09-09T03:59:49;13.30;99.90
10437;DHT22;5265;50.006;9.202;2022-09-09T04:02:16;13.30;99.90
10437;DHT22;5265;50.006;9.202;2022-09-09T04:04:43;13.30;99.90
10437;DHT22;5265;50.006;9.202;2022-09-09T04:07:11;13.30;99.90
10437;DHT22;5265;50.006;9.202;2022-09-09T04:09:40;13.30;99.90
10437;DHT22;5265;50.006;9.202;2022-09-09T04:12:08;13.30;99.90
10437;DHT22;5265;50.006;9.202;2022-09-09T04:14:39;13.30;99.90
10437;DHT22;5265;50.006;9.202;2022-09-09T04:17:06;13.30;99.90
10437;DHT22;5265;50.006;9.202;2022-09-09T04:19:34;13.40;99.90
10437;DHT22;5265;50.006;9.202;2022-09-09T04:22:01;13.40;99.90
10437;DHT22;5265;50.006;9.202;2022-09-09T04:24:29;13.40;99.90
10437;DHT22;5265;50.006;9.202;2022-09-09T04:26:59;13.40;99.90
10437;DHT22;5265;50.006;9.202;2022-09-09T04:29:27;13.30;99.90
10437;DHT22;5265;50.006;9.202;2022-09-09T04:31:54;13.20;99.90
10437;DHT22;5265;50.006;9.202;2022-09-09T04:34:21;13.20;99.90
10437;DHT22;5265;50.006;9.202;2022-09-09T04:36:48;13.20;99.90
10437;DHT22;5265;50.006;9.202;2022-09-09T04:39:18;13.30;99.90
10437;DHT22;5265;50.006;9.202;2022-09-09T04:41:45;13.20;99.90
10437;DHT22;5265;50.006;9.202;2022-09-09T04:44:14;13.10;99.90
10437;DHT22;5265;50.006;9.202;2022-09-09T04:46:41;13.00;99.90
10437;DHT22;5265;50.006;9.202;2022-09-09T04:49:09;12.90;99.90
10437;DHT22;5265;50.006;9.202;2022-09-09T04:51:37;13.00;99.90
10437;DHT22;5265;50.006;9.202;2022-09-09T04:54:04;12.90;99.90
10437;DHT22;5265;50.006;9.202;2022-09-09T04:56:33;12.90;99.90
10437;DHT22;5265;50.006;9.202;2022-09-09T04:59:00;12.90;99.90
10437;DHT22;5265;50.006;9.202;2022-09-09T05:01:38;12.90;99.90
10437;DHT22;5265;50.006;9.202;2022-09-09T05:04:05;12.80;99.90
10437;DHT22;5265;50.006;9.202;2022-09-09T05:06:33;12.90;99.90
10437;DHT22;5265;50.006;9.202;2022-09-09T05:09:03;12.90;99.90
10437;DHT22;5265;50.006;9.202;2022-09-09T05:11:30;12.90;99.90
10437;DHT22;5265;50.006;9.202;2022-09-09T05:14:07;13.00;99.90
10437;DHT22;5265;50.006;9.202;2022-09-09T05:16:35;12.90;99.90
10437;DHT22;5265;50.006;9.202;2022-09-09T05:19:03;13.00;99.90
10437;DHT22;5265;50.006;9.202;2022-09-09T05:21:51;13.00;99.90
10437;DHT22;5265;50.006;9.202;2022-09-09T05:24:23;13.00;99.90
10437;DHT22;5265;50.006;9.202;2022-09-09T05:26:53;13.00;99.90
10437;DHT22;5265;50.006;9.202;2022-09-09T05:29:23;13.00;99.90
10437;DHT22;5265;50.006;9.202;2022-09-09T05:31:51;13.00;99.90
10437;DHT22;5265;50.006;9.202;2022-09-09T05:34:21;13.00;99.90
10437;DHT22;5265;50.006;9.202;2022-09-09T05:36:49;12.90;99.90
10437;DHT22;5265;50.006;9.202;2022-09-09T05:39:19;13.00;99.90
10437;DHT22;5265;50.006;9.202;2022-09-09T05:41:47;13.00;99.90
10437;DHT22;5265;50.006;9.202;2022-09-09T05:44:14;13.00;99.90
10437;DHT22;5265;50.006;9.202;2022-09-09T05:46:42;13.00;99.90
10437;DHT22;5265;50.006;9.202;2022-09-09T05:49:12;13.00;99.90
10437;DHT22;5265;50.006;9.202;2022-09-09T05:51:43;13.00;99.90
10437;DHT22;5265;50.006;9.202;2022-09-09T05:54:12;13.10;99.90
10437;DHT22;5265;50.006;9.202;2022-09-09T05:56:44;13.10;99.90
10437;DHT22;5265;50.006;9.202;2022-09-09T05:59:12;13.20;99.90
10437;DHT22;5265;50.006;9.202;2022-09-09T06:01:40;13.20;99.90
10437;DHT22;5265;50.006;9.202;2022-09-09T06:04:17;13.30;99.90
10437;DHT22;5265;50.006;9.202;2022-09-09T06:06:49;13.40;99.90
10437;DHT22;5265;50.006;9.202;2022-09-09T06:09:18;13.50;99.90
10437;DHT22;5265;50.006;9.202;2022-09-09T06:11:45;13.60;99.90
10437;DHT22;5265;50.006;9.202;2022-09-09T06:14:14;13.70;99.90
10437;DHT22;5265;50.006;9.202;2022-09-09T06:16:46;13.80;99.90
10437;DHT22;5265;50.006;9.202;2022-09-09T06:19:31;14.00;99.90
10437;DHT22;5265;50.006;9.202;2022-09-09T06:22:01;14.00;99.90
10437;DHT22;5265;50.006;9.202;2022-09-09T06:24:31;14.10;99.90
10437;DHT22;5265;50.006;9.202;2022-09-09T06:27:00;14.10;99.90
10437;DHT22;5265;50.006;9.202;2022-09-09T06:29:31;14.30;99.90
10437;DHT22;5265;50.006;9.202;2022-09-09T06:31:59;14.40;99.90
10437;DHT22;5265;50.006;9.202;2022-09-09T06:34:26;14.40;99.90
10437;DHT22;5265;50.006;9.202;2022-09-09T06:36:56;14.50;99.90
10437;DHT22;5265;50.006;9.202;2022-09-09T06:39:26;14.50;99.90
10437;DHT22;5265;50.006;9.202;2022-09-09T06:41:54;14.60;99.90
10437;DHT22;5265;50.006;9.202;2022-09-09T06:44:42;14.70;99.90
10437;DHT22;5265;50.006;9.202;2022-09-09T06:47:14;14.80;99.90
10437;DHT22;5265;50.006;9.202;2022-09-09T06:49:42;14.90;99.90
10437;DHT22;5265;50.006;9.202;2022-09-09T06:52:10;15.00;99.90
10437;DHT22;5265;50.006;9.202;2022-09-09T06:54:39;15.10;99.90
10437;DHT22;5265;50.006;9.202;2022-09-09T06:57:07;15.40;99.90
10437;DHT22;5265;50.006;9.202;2022-09-09T06:59:34;15.60;99.90
10437;DHT22;5265;50.006;9.202;2022-09-09T07:02:02;15.70;99.90
10437;DHT22;5265;50.006;9.202;2022-09-09T07:04:30;15.90;99.90
10437;DHT22;5265;50.006;9.202;2022-09-09T07:06:57;16.10;99.90
10437;DHT22;5265;50.006;9.202;2022-09-09T07:09:25;16.20;99.90
10437;DHT22;5265;50.006;9.202;2022-09-09T07:11:54;16.40;99.90
10437;DHT22;5265;50.006;9.202;2022-09-09T07:14:28;16.40;99.90
10437;DHT22;5265;50.006;9.202;2022-09-09T07:16:58;16.60;99.90
10437;DHT22;5265;50.006;9.202;2022-09-09T07:19:30;16.70;99.90
10437;DHT22;5265;50.006;9.202;2022-09-09T07:22:01;16.80;99.90
10437;DHT22;5265;50.006;9.202;2022-09-09T07:24:29;17.00;99.90
10437;DHT22;5265;50.006;9.202;2022-09-09T07:26:59;17.10;99.90
10437;DHT22;5265;50.006;9.202;2022-09-09T07:29:26;17.20;99.90
10437;DHT22;5265;50.006;9.202;2022-09-09T07:31:53;17.20;99.90
10437;DHT22;5265;50.006;9.202;2022-09-09T07:34:26;17.30;99.90
10437;DHT22;5265;50.006;9.202;2022-09-09T07:36:53;17.30;99.90
10437;DHT22;5265;50.006;9.202;2022-09-09T07:39:23;17.40;99.90
10437;DHT22;5265;50.006;9.202;2022-09-09T07:41:52;17.40;99.90
10437;DHT22;5265;50.006;9.202;2022-09-09T07:44:24;17.50;99.90
10437;DHT22;5265;50.006;9.202;2022-09-09T07:46:59;17.60;99.90
10437;DHT22;5265;50.006;9.202;2022-09-09T07:49:32;17.80;99.90
10437;DHT22;5265;50.006;9.202;2022-09-09T07:52:02;17.90;99.90
10437;DHT22;5265;50.006;9.202;2022-09-09T07:54:29;17.90;99.90
10437;DHT22;5265;50.006;9.202;2022-09-09T07:56:58;17.90;99.90
10437;DHT22;5265;50.006;9.202;2022-09-09T07:59:28;17.90;99.90
10437;DHT22;5265;50.006;9.202;2022-09-09T08:01:56;17.90;99.90
10437;DHT22;5265;50.006;9.202;2022-09-09T08:04:27;17.90;99.90
10437;DHT22;5265;50.006;9.202;2022-09-09T08:06:56;18.00;99.90
10437;DHT22;5265;50.006;9.202;2022-09-09T08:09:25;18.10;99.90
10437;DHT22;5265;50.006;9.202;2022-09-09T08:12:01;18.20;99.90
10437;DHT22;5265;50.006;9.202;2022-09-09T08:14:31;18.20;99.90
10437;DHT22;5265;50.006;9.202;2022-09-09T08:16:58;18.20;99.90
10437;DHT22;5265;50.006;9.202;2022-09-09T08:19:27;18.20;99.90
10437;DHT22;5265;50.006;9.202;2022-09-09T08:21:57;18.20;99.90
10437;DHT22;5265;50.006;9.202;2022-09-09T08:24:24;18.10;99.90
10437;DHT22;5265;50.006;9.202;2022-09-09T08:26:51;18.20;99.90
10437;DHT22;5265;50.006;9.202;2022-09-09T08:29:22;18.20;99.90
10437;DHT22;5265;50.006;9.202;2022-09-09T08:31:53;18.20;99.90
10437;DHT22;5265;50.006;9.202;2022-09-09T08:34:21;18.20;99.90
10437;DHT22;5265;50.006;9.202;2022-09-09T08:36:50;18.20;99.90
10437;DHT22;5265;50.006;9.202;2022-09-09T08:39:21;18.10;99.90
10437;DHT22;5265;50.006;9.202;2022-09-09T08:44:45;18.30;99.90
10437;DHT22;5265;50.006;9.202;2022-09-09T08:47:21;18.40;99.90
10437;DHT22;5265;50.006;9.202;2022-09-09T08:49:56;18.50;99.90
10437;DHT22;5265;50.006;9.202;2022-09-09T08:52:27;18.50;99.90
10437;DHT22;5265;50.006;9.202;2022-09-09T08:54:56;18.30;99.90
10437;DHT22;5265;50.006;9.202;2022-09-09T08:57:26;18.40;99.90
10437;DHT22;5265;50.006;9.202;2022-09-09T08:59:54;18.50;99.90
10437;DHT22;5265;50.006;9.202;2022-09-09T09:02:26;18.60;99.90
10437;DHT22;5265;50.006;9.202;2022-09-09T09:04:58;18.70;99.90
10437;DHT22;5265;50.006;9.202;2022-09-09T09:07:30;18.80;99.90
10437;DHT22;5265;50.006;9.202;2022-09-09T09:10:02;19.00;99.90
10437;DHT22;5265;50.006;9.202;2022-09-09T09:12:35;19.00;99.90
10437;DHT22;5265;50.006;9.202;2022-09-09T09:15:05;19.10;99.90
10437;DHT22;5265;50.006;9.202;2022-09-09T09:17:39;19.20;99.90
10437;DHT22;5265;50.006;9.202;2022-09-09T09:20:11;19.00;99.90
10437;DHT22;5265;50.006;9.202;2022-09-09T09:22:40;19.00;99.90
10437;DHT22;5265;50.006;9.202;2022-09-09T09:25:11;19.10;99.90
10437;DHT22;5265;50.006;9.202;2022-09-09T09:27:43;19.00;99.90
10437;DHT22;5265;50.006;9.202;2022-09-09T09:30:13;19.10;99.90
10437;DHT22;5265;50.006;9.202;2022-09-09T09:32:44;19.10;99.90
10437;DHT22;5265;50.006;9.202;2022-09-09T09:35:13;19.10;99.90
10437;DHT22;5265;50.006;9.202;2022-09-09T09:37:41;19.30;99.90
10437;DHT22;5265;50.006;9.202;2022-09-09T09:40:11;19.50;99.90
10437;DHT22;5265;50.006;9.202;2022-09-09T09:42:47;19.50;99.90
10437;DHT22;5265;50.006;9.202;2022-09-09T09:45:16;19.60;99.90
10437;DHT22;5265;50.006;9.202;2022-09-09T09:47:46;19.50;99.90
10437;DHT22;5265;50.006;9.202;2022-09-09T09:50:18;19.30;99.90
10437;DHT22;5265;50.006;9.202;2022-09-09T09:52:53;19.20;99.90
10437;DHT22;5265;50.006;9.202;2022-09-09T09:55:21;19.40;99.90
10437;DHT22;5265;50.006;9.202;2022-09-09T09:57:50;19.50;99.90
10437;DHT22;5265;50.006;9.202;2022-09-09T10:00:18;19.60;99.90
10437;DHT22;5265;50.006;9.202;2022-09-09T10:02:55;19.70;99.90
10437;DHT22;5265;50.006;9.202;2022-09-09T10:05:27;19.90;99.90
10437;DHT22;5265;50.006;9.202;2022-09-09T10:08:00;20.00;99.90
10437;DHT22;5265;50.006;9.202;2022-09-09T10:10:36;20.10;99.90
10437;DHT22;5265;50.006;9.202;2022-09-09T10:13:10;20.10;99.90
10437;DHT22;5265;50.006;9.202;2022-09-09T10:15:39;20.30;99.90
10437;DHT22;5265;50.006;9.202;2022-09-09T10:18:17;20.30;99.90
10437;DHT22;5265;50.006;9.202;2022-09-09T10:20:50;20.20;99.90
10437;DHT22;5265;50.006;9.202;2022-09-09T10:23:23;20.20;99.90
10437;DHT22;5265;50.006;9.202;2022-09-09T10:25:57;20.40;99.90
10437;DHT22;5265;50.006;9.202;2022-09-09T10:28:33;20.80;99.90
10437;DHT22;5265;50.006;9.202;2022-09-09T10:31:10;20.60;99.90
10437;DHT22;5265;50.006;9.202;2022-09-09T10:33:41;20.80;99.90
10437;DHT22;5265;50.006;9.202;2022-09-09T10:36:13;21.10;99.90
10437;DHT22;5265;50.006;9.202;2022-09-09T10:38:45;21.10;99.90
10437;DHT22;5265;50.006;9.202;2022-09-09T10:41:15;20.90;99.90
10437;DHT22;5265;50.006;9.202;2022-09-09T10:43:47;20.80;99.90
10437;DHT22;5265;50.006;9.202;2022-09-09T10:46:18;20.90;99.90
10437;DHT22;5265;50.006;9.202;2022-09-09T10:48:54;21.00;99.90
10437;DHT22;5265;50.006;9.202;2022-09-09T10:51:27;20.90;99.90
10437;DHT22;5265;50.006;9.202;2022-09-09T10:54:04;20.80;99.90
10437;DHT22;5265;50.006;9.202;2022-09-09T10:56:32;20.70;99.90
10437;DHT22;5265;50.006;9.202;2022-09-09T10:59:02;20.60;99.90
10437;DHT22;5265;50.006;9.202;2022-09-09T11:01:32;20.70;99.90
10437;DHT22;5265;50.006;9.202;2022-09-09T11:04:03;20.80;99.90
10437;DHT22;5265;50.006;9.202;2022-09-09T11:06:34;21.00;99.90
10437;DHT22;5265;50.006;9.202;2022-09-09T11:09:04;21.30;99.90
10437;DHT22;5265;50.006;9.202;2022-09-09T11:11:34;21.10;99.90
10437;DHT22;5265;50.006;9.202;2022-09-09T11:14:03;21.20;99.90
10437;DHT22;5265;50.006;9.202;2022-09-09T11:16:36;21.20;99.90
10437;DHT22;5265;50.006;9.202;2022-09-09T11:19:11;21.30;99.90
10437;DHT22;5265;50.006;9.202;2022-09-09T11:21:42;21.30;99.90
10437;DHT22;5265;50.006;9.202;2022-09-09T11:24:12;21.20;99.90
10437;DHT22;5265;50.006;9.202;2022-09-09T11:26:42;21.10;99.90
10437;DHT22;5265;50.006;9.202;2022-09-09T11:29:17;21.00;99.90
10437;DHT22;5265;50.006;9.202;2022-09-09T11:31:53;21.00;99.90
10437;DHT22;5265;50.006;9.202;2022-09-09T11:34:33;21.20;99.90
10437;DHT22;5265;50.006;9.202;2022-09-09T11:39:51;21.40;99.90
10437;DHT22;5265;50.006;9.202;2022-09-09T11:42:24;21.40;99.90
10437;DHT22;5265;50.006;9.202;2022-09-09T11:44:51;21.40;99.90
10437;DHT22;5265;50.006;9.202;2022-09-09T11:47:20;21.50;99.90
10437;DHT22;5265;50.006;9.202;2022-09-09T11:49:50;21.70;99.90
10437;DHT22;5265;50.006;9.202;2022-09-09T11:52:21;21.80;99.90
10437;DHT22;5265;50.006;9.202;2022-09-09T11:54:50;21.90;99.90
10437;DHT22;5265;50.006;9.202;2022-09-09T11:57:23;22.00;99.90
10437;DHT22;5265;50.006;9.202;2022-09-09T11:59:51;22.40;99.90
10437;DHT22;5265;50.006;9.202;2022-09-09T12:02:22;22.10;99.90
10437;DHT22;5265;50.006;9.202;2022-09-09T12:04:55;21.50;99.90
10437;DHT22;5265;50.006;9.202;2022-09-09T12:07:25;21.10;99.90
10437;DHT22;5265;50.006;9.202;2022-09-09T12:09:56;20.70;99.90
10437;DHT22;5265;50.006;9.202;2022-09-09T12:12:26;20.60;99.90
10437;DHT22;5265;50.006;9.202;2022-09-09T12:14:55;20.60;99.90
10437;DHT22;5265;50.006;9.202;2022-09-09T12:17:24;20.30;99.90
10437;DHT22;5265;50.006;9.202;2022-09-09T12:20:00;20.30;99.90
10437;DHT22;5265;50.006;9.202;2022-09-09T12:22:32;20.20;99.90
10437;DHT22;5265;50.006;9.202;2022-09-09T12:25:05;20.10;99.90
10437;DHT22;5265;50.006;9.202;2022-09-09T12:27:40;20.40;99.90
10437;DHT22;5265;50.006;9.202;2022-09-09T12:30:12;20.80;99.90
10437;DHT22;5265;50.006;9.202;2022-09-09T12:32:41;21.00;99.90
10437;DHT22;5265;50.006;9.202;2022-09-09T12:35:12;21.10;99.90
10437;DHT22;5265;50.006;9.202;2022-09-09T12:37:41;21.30;99.90
10437;DHT22;5265;50.006;9.202;2022-09-09T12:40:18;21.40;99.90
10437;DHT22;5265;50.006;9.202;2022-09-09T12:42:46;21.40;99.90
10437;DHT22;5265;50.006;9.202;2022-09-09T12:45:17;21.40;99.90
10437;DHT22;5265;50.006;9.202;2022-09-09T12:47:45;21.30;99.90
10437;DHT22;5265;50.006;9.202;2022-09-09T12:50:19;21.20;99.90
10437;DHT22;5265;50.006;9.202;2022-09-09T12:52:47;21.40;99.90
10437;DHT22;5265;50.006;9.202;2022-09-09T12:55:18;21.40;99.90
10437;DHT22;5265;50.006;9.202;2022-09-09T12:57:47;21.80;99.90
10437;DHT22;5265;50.006;9.202;2022-09-09T13:00:17;22.40;99.90
10437;DHT22;5265;50.006;9.202;2022-09-09T13:02:46;22.60;99.90
10437;DHT22;5265;50.006;9.202;2022-09-09T13:05:15;22.50;99.90
10437;DHT22;5265;50.006;9.202;2022-09-09T13:07:44;22.30;99.90
10437;DHT22;5265;50.006;9.202;2022-09-09T13:10:13;22.00;99.90
10437;DHT22;5265;50.006;9.202;2022-09-09T13:12:41;21.60;99.90
10437;DHT22;5265;50.006;9.202;2022-09-09T13:15:12;21.70;99.90
10437;DHT22;5265;50.006;9.202;2022-09-09T13:17:40;21.80;99.90
10437;DHT22;5265;50.006;9.202;2022-09-09T13:20:14;21.50;99.90
10437;DHT22;5265;50.006;9.202;2022-09-09T13:22:42;21.60;99.90
10437;DHT22;5265;50.006;9.202;2022-09-09T13:25:19;21.50;99.90
10437;DHT22;5265;50.006;9.202;2022-09-09T13:27:54;21.60;99.90
10437;DHT22;5265;50.006;9.202;2022-09-09T13:30:23;21.70;99.90
10437;DHT22;5265;50.006;9.202;2022-09-09T13:33:00;21.70;99.90
10437;DHT22;5265;50.006;9.202;2022-09-09T13:35:27;21.60;99.90
10437;DHT22;5265;50.006;9.202;2022-09-09T13:37:55;21.60;99.90
10437;DHT22;5265;50.006;9.202;2022-09-09T13:40:23;21.60;99.90
10437;DHT22;5265;50.006;9.202;2022-09-09T13:42:51;21.60;99.90
10437;DHT22;5265;50.006;9.202;2022-09-09T13:45:22;21.60;99.90
10437;DHT22;5265;50.006;9.202;2022-09-09T13:47:52;21.30;99.90
10437;DHT22;5265;50.006;9.202;2022-09-09T13:50:21;21.00;99.90
10437;DHT22;5265;50.006;9.202;2022-09-09T13:52:49;21.10;99.90
10437;DHT22;5265;50.006;9.202;2022-09-09T13:55:17;21.10;99.90
10437;DHT22;5265;50.006;9.202;2022-09-09T13:57:52;21.00;99.90
10437;DHT22;5265;50.006;9.202;2022-09-09T14:00:19;20.90;99.90
10437;DHT22;5265;50.006;9.202;2022-09-09T14:02:47;20.80;99.90
10437;DHT22;5265;50.006;9.202;2022-09-09T14:05:14;20.60;99.90
10437;DHT22;5265;50.006;9.202;2022-09-09T14:07:42;20.60;99.90
10437;DHT22;5265;50.006;9.202;2022-09-09T14:10:09;20.60;99.90
10437;DHT22;5265;50.006;9.202;2022-09-09T14:12:36;20.60;99.90
10437;DHT22;5265;50.006;9.202;2022-09-09T14:15:06;20.60;99.90
10437;DHT22;5265;50.006;9.202;2022-09-09T14:17:33;20.60;99.90
10437;DHT22;5265;50.006;9.202;2022-09-09T14:20:02;20.70;99.90
10437;DHT22;5265;50.006;9.202;2022-09-09T14:22:29;20.70;99.90
10437;DHT22;5265;50.006;9.202;2022-09-09T14:24:56;20.60;99.90
10437;DHT22;5265;50.006;9.202;2022-09-09T14:27:24;20.60;99.90
10437;DHT22;5265;50.006;9.202;2022-09-09T14:29:52;20.70;99.90
10437;DHT22;5265;50.006;9.202;2022-09-09T14:32:21;20.70;99.90
10437;DHT22;5265;50.006;9.202;2022-09-09T14:34:48;20.70;99.90
10437;DHT22;5265;50.006;9.202;2022-09-09T14:37:16;20.70;99.90
10437;DHT22;5265;50.006;9.202;2022-09-09T14:39:43;21.00;99.90
10437;DHT22;5265;50.006;9.202;2022-09-09T14:42:12;21.40;99.90
10437;DHT22;5265;50.006;9.202;2022-09-09T14:44:40;21.60;99.90
10437;DHT22;5265;50.006;9.202;2022-09-09T14:47:07;21.50;99.90
10437;DHT22;5265;50.006;9.202;2022-09-09T14:49:36;21.30;99.90
10437;DHT22;5265;50.006;9.202;2022-09-09T14:52:04;21.30;99.90
10437;DHT22;5265;50.006;9.202;2022-09-09T14:54:32;21.20;99.90
10437;DHT22;5265;50.006;9.202;2022-09-09T14:56:59;21.00;99.90
10437;DHT22;5265;50.006;9.202;2022-09-09T14:59:26;20.90;99.90
10437;DHT22;5265;50.006;9.202;2022-09-09T15:01:53;20.80;99.90
10437;DHT22;5265;50.006;9.202;2022-09-09T15:04:20;20.60;99.90
10437;DHT22;5265;50.006;9.202;2022-09-09T15:06:49;20.30;99.90
10437;DHT22;5265;50.006;9.202;2022-09-09T15:09:18;20.20;99.90
10437;DHT22;5265;50.006;9.202;2022-09-09T15:11:45;20.10;99.90
10437;DHT22;5265;50.006;9.202;2022-09-09T15:14:12;20.00;99.90
10437;DHT22;5265;50.006;9.202;2022-09-09T15:16:40;19.90;99.90
10437;DHT22;5265;50.006;9.202;2022-09-09T15:19:07;19.80;99.90
10437;DHT22;5265;50.006;9.202;2022-09-09T15:21:36;19.80;99.90
10437;DHT22;5265;50.006;9.202;2022-09-09T15:24:05;19.70;99.90
10437;DHT22;5265;50.006;9.202;2022-09-09T15:26:34;19.80;99.90
10437;DHT22;5265;50.006;9.202;2022-09-09T15:29:04;19.80;99.90
10437;DHT22;5265;50.006;9.202;2022-09-09T15:31:31;19.70;99.90
10437;DHT22;5265;50.006;9.202;2022-09-09T15:33:59;19.60;99.90
10437;DHT22;5265;50.006;9.202;2022-09-09T15:36:27;19.70;99.90
10437;DHT22;5265;50.006;9.202;2022-09-09T15:38:55;19.50;99.90
10437;DHT22;5265;50.006;9.202;2022-09-09T15:41:24;19.60;99.90
10437;DHT22;5265;50.006;9.202;2022-09-09T15:43:51;19.70;99.90
10437;DHT22;5265;50.006;9.202;2022-09-09T15:46:27;19.60;99.90
10437;DHT22;5265;50.006;9.202;2022-09-09T15:48:56;19.50;99.90
10437;DHT22;5265;50.006;9.202;2022-09-09T15:51:23;19.40;99.90
10437;DHT22;5265;50.006;9.202;2022-09-09T15:53:53;19.40;99.90
10437;DHT22;5265;50.006;9.202;2022-09-09T15:56:20;19.30;99.90
10437;DHT22;5265;50.006;9.202;2022-09-09T15:58:48;19.20;99.90
10437;DHT22;5265;50.006;9.202;2022-09-09T16:01:16;19.30;99.90
10437;DHT22;5265;50.006;9.202;2022-09-09T16:03:44;19.60;99.90
10437;DHT22;5265;50.006;9.202;2022-09-09T16:06:12;19.80;99.90
10437;DHT22;5265;50.006;9.202;2022-09-09T16:08:40;20.20;99.90
10437;DHT22;5265;50.006;9.202;2022-09-09T16:11:09;20.50;99.90